Time;durP1;ratioP1;P1;durP2;ratioP2;P2;SDS_P1;SDS_P2;PMS_P1;PMS_P2;Temp;Humidity;BMP_temperature;BMP_pressure;BME280_temperature;BME280_humidity;BME280_pressure;Samples;Min_cycle;Max_cycle;Signal;HPM_P1;HPM_P2
2021/11/15 00:01:14;;;;;;;64.38;42.65;;;7.10;90.80;;;;;;5075276;28;20051;-74
2021/11/15 00:03:42;;;;;;;63.38;43.10;;;7.10;90.80;;;;;;5062834;28;20036;-75
2021/11/15 00:06:08;;;;;;;59.08;41.13;;;7.10;90.90;;;;;;5074252;28;20032;-76
2021/11/15 00:08:33;;;;;;;60.55;40.70;;;7.10;90.80;;;;;;5076141;28;20032;-73
2021/11/15 00:10:59;;;;;;;65.88;43.78;;;7.10;90.80;;;;;;5069717;28;20033;-73
2021/11/15 00:13:25;;;;;;;64.07;42.65;;;7.10;90.80;;;;;;5084364;28;20123;-74
2021/11/15 00:15:50;;;;;;;66.38;43.47;;;7.10;90.80;;;;;;5083735;28;20483;-74
2021/11/15 00:18:16;;;;;;;72.32;46.65;;;7.00;90.80;;;;;;5087156;28;20408;-74
2021/11/15 00:20:42;;;;;;;74.03;44.47;;;7.00;90.80;;;;;;5079007;28;20051;-73
2021/11/15 00:23:08;;;;;;;74.43;45.08;;;7.10;90.70;;;;;;5080274;28;20157;-73
2021/11/15 00:25:34;;;;;;;70.10;44.70;;;7.00;90.70;;;;;;5079948;28;20060;-75
2021/11/15 00:28:00;;;;;;;70.82;44.83;;;7.00;90.70;;;;;;5085634;28;20039;-73
2021/11/15 00:30:26;;;;;;;71.10;44.22;;;7.00;90.80;;;;;;5084049;28;20048;-73
2021/11/15 00:32:51;;;;;;;71.65;44.95;;;7.10;90.70;;;;;;5083667;27;20395;-73
2021/11/15 00:35:17;;;;;;;76.95;44.78;;;7.00;90.60;;;;;;5082476;28;20032;-73
2021/11/15 00:37:43;;;;;;;67.97;42.95;;;7.00;90.60;;;;;;5081886;28;20043;-75
2021/11/15 00:40:14;;;;;;;76.63;45.72;;;7.00;90.60;;;;;;5084803;27;20032;-73
2021/11/15 00:42:40;;;;;;;77.50;44.75;;;7.00;90.60;;;;;;5083383;28;20036;-74
2021/11/15 00:45:08;;;;;;;74.63;46.05;;;7.00;90.70;;;;;;5079783;28;20036;-73
2021/11/15 00:47:34;;;;;;;75.00;45.22;;;6.90;90.60;;;;;;5083226;28;20541;-73
2021/11/15 00:49:59;;;;;;;74.80;45.85;;;7.00;90.60;;;;;;5084566;27;20116;-74
2021/11/15 00:52:25;;;;;;;78.30;46.72;;;6.90;90.60;;;;;;5080712;27;20033;-73
2021/11/15 00:54:51;;;;;;;74.57;45.35;;;6.90;90.70;;;;;;5087135;28;20085;-73
2021/11/15 00:57:16;;;;;;;82.72;46.55;;;6.90;90.80;;;;;;5079398;28;20035;-73
2021/11/15 00:59:42;;;;;;;80.53;47.67;;;6.80;91.00;;;;;;5084825;27;20058;-74
2021/11/15 01:02:08;;;;;;;73.47;45.28;;;6.80;91.30;;;;;;5080924;28;20055;-73
2021/11/15 01:04:34;;;;;;;80.72;45.95;;;6.90;91.40;;;;;;5084179;28;20036;-73
2021/11/15 01:06:59;;;;;;;78.15;45.83;;;6.90;91.40;;;;;;5067793;28;20526;-72
2021/11/15 01:09:26;;;;;;;74.78;44.92;;;6.80;91.30;;;;;;5062860;28;20051;-73
2021/11/15 01:11:53;;;;;;;73.88;45.22;;;6.80;91.50;;;;;;5058333;28;20456;-72
2021/11/15 01:14:20;;;;;;;77.10;45.78;;;6.80;91.40;;;;;;5076924;28;20044;-73
2021/11/15 01:16:46;;;;;;;74.80;46.67;;;6.80;91.30;;;;;;5084117;28;20128;-74
2021/11/15 01:19:14;;;;;;;71.05;43.35;;;6.80;91.40;;;;;;5076045;28;20116;-74
2021/11/15 01:21:40;;;;;;;70.03;44.70;;;6.70;91.50;;;;;;5088062;27;20036;-73
2021/11/15 01:24:06;;;;;;;76.32;44.20;;;6.70;91.60;;;;;;5063949;27;20046;-74
2021/11/15 01:26:31;;;;;;;72.40;45.47;;;6.70;91.60;;;;;;5079661;28;20071;-75
2021/11/15 01:28:57;;;;;;;77.47;46.63;;;6.60;91.80;;;;;;5078898;28;20048;-72
2021/11/15 01:31:22;;;;;;;75.30;44.92;;;6.60;91.90;;;;;;5084433;28;20090;-73
2021/11/15 01:33:48;;;;;;;73.68;44.97;;;6.60;92.00;;;;;;5072366;27;20471;-73
2021/11/15 01:36:14;;;;;;;74.00;44.88;;;6.60;92.10;;;;;;5077578;28;20572;-73
2021/11/15 01:38:40;;;;;;;70.68;43.78;;;6.60;92.10;;;;;;5077988;28;20055;-73
2021/11/15 01:41:07;;;;;;;68.80;43.45;;;6.60;92.10;;;;;;5075137;28;20074;-76
2021/11/15 01:43:33;;;;;;;72.38;43.58;;;6.50;92.10;;;;;;5062928;28;20063;-73
2021/11/15 01:46:01;;;;;;;69.03;43.55;;;6.60;92.30;;;;;;5062237;28;20173;-74
2021/11/15 01:48:26;;;;;;;69.80;43.65;;;6.60;92.30;;;;;;5068221;28;20048;-73
2021/11/15 01:50:52;;;;;;;73.38;43.25;;;6.50;92.30;;;;;;5074194;28;20036;-74
2021/11/15 01:53:19;;;;;;;72.30;43.38;;;6.50;92.30;;;;;;5080487;28;20054;-73
2021/11/15 01:55:45;;;;;;;71.95;44.05;;;6.50;92.40;;;;;;5078917;28;20033;-75
2021/11/15 01:58:13;;;;;;;74.72;45.75;;;6.40;92.30;;;;;;5075727;28;20483;-75
2021/11/15 02:00:45;;;;;;;65.63;41.55;;;6.40;92.40;;;;;;5085584;28;20028;-74
2021/11/15 02:03:12;;;;;;;71.40;43.38;;;6.40;92.40;;;;;;5071121;27;20047;-74
2021/11/15 02:05:38;;;;;;;70.75;43.35;;;6.40;92.50;;;;;;5079640;28;20430;-75
2021/11/15 02:08:04;;;;;;;68.82;42.85;;;6.30;92.60;;;;;;5075397;28;20070;-73
2021/11/15 02:10:30;;;;;;;73.68;42.33;;;6.30;92.60;;;;;;5083903;28;20032;-75
2021/11/15 02:12:56;;;;;;;76.22;44.92;;;6.20;92.70;;;;;;5073133;28;20042;-73
2021/11/15 02:15:22;;;;;;;78.15;46.10;;;6.30;92.80;;;;;;5079534;27;20037;-74
2021/11/15 02:17:49;;;;;;;74.65;45.22;;;6.30;92.90;;;;;;5071718;28;20124;-74
2021/11/15 02:20:25;;;;;;;78.28;43.72;;;6.30;93.00;;;;;;5064543;28;20475;-74
2021/11/15 02:22:52;;;;;;;71.55;43.83;;;6.20;93.00;;;;;;5061313;28;20041;-75
2021/11/15 02:25:21;;;;;;;74.18;43.40;;;6.30;93.10;;;;;;5056754;28;20028;-73
2021/11/15 02:27:47;;;;;;;73.45;44.70;;;6.30;93.10;;;;;;5058382;28;20390;-74
2021/11/15 02:30:25;;;;;;;69.97;42.13;;;6.30;93.00;;;;;;5063694;28;20562;-73
2021/11/15 02:32:51;;;;;;;73.65;43.45;;;6.20;92.90;;;;;;5058212;28;20488;-77
2021/11/15 02:35:17;;;;;;;73.45;41.75;;;6.20;92.90;;;;;;5072829;28;20087;-73
2021/11/15 02:37:45;;;;;;;69.30;42.08;;;6.20;93.00;;;;;;5083210;28;20435;-78
2021/11/15 02:40:16;;;;;;;67.03;41.58;;;6.20;92.90;;;;;;5061976;28;20047;-72
2021/11/15 02:42:44;;;;;;;70.15;42.13;;;6.20;93.00;;;;;;5070598;28;20485;-72
2021/11/15 02:45:11;;;;;;;73.25;42.88;;;6.10;92.90;;;;;;5066172;28;20107;-72
2021/11/15 02:47:37;;;;;;;67.45;39.67;;;6.10;92.80;;;;;;5083585;28;20451;-72
2021/11/15 02:50:05;;;;;;;66.70;40.10;;;6.00;92.90;;;;;;5082891;28;20075;-72
2021/11/15 02:52:32;;;;;;;61.13;39.17;;;6.00;92.90;;;;;;5077118;28;20054;-73
2021/11/15 02:54:59;;;;;;;65.88;41.03;;;5.90;92.90;;;;;;5057107;28;20468;-73
2021/11/15 02:57:26;;;;;;;63.53;39.50;;;5.90;93.00;;;;;;5062690;28;20036;-73
2021/11/15 02:59:52;;;;;;;64.50;38.28;;;5.80;93.00;;;;;;5058719;28;20028;-75
2021/11/15 03:02:23;;;;;;;69.70;41.35;;;5.80;93.00;;;;;;5058260;28;20039;-74
2021/11/15 03:04:49;;;;;;;62.05;38.05;;;5.70;93.10;;;;;;5056461;28;20033;-73
2021/11/15 03:07:14;;;;;;;65.05;40.10;;;5.70;93.10;;;;;;5076043;28;20119;-73
2021/11/15 03:09:40;;;;;;;66.93;40.53;;;5.70;93.10;;;;;;5084278;27;20040;-74
2021/11/15 03:12:11;;;;;;;63.78;38.28;;;5.70;93.10;;;;;;5077818;28;20029;-75
2021/11/15 03:14:36;;;;;;;62.38;39.45;;;5.60;93.20;;;;;;5075002;28;20032;-73
2021/11/15 03:17:03;;;;;;;70.30;41.17;;;5.60;93.20;;;;;;5083670;27;20032;-74
2021/11/15 03:19:28;;;;;;;72.53;43.47;;;5.70;93.40;;;;;;5076232;28;20471;-74
2021/11/15 03:21:54;;;;;;;73.72;41.78;;;5.80;93.40;;;;;;5081879;27;20036;-72
2021/11/15 03:24:19;;;;;;;69.47;40.53;;;5.80;93.50;;;;;;5075464;28;20373;-73
2021/11/15 03:26:45;;;;;;;78.32;43.88;;;5.90;93.50;;;;;;5084036;27;20078;-74
2021/11/15 03:29:11;;;;;;;76.60;42.03;;;6.00;93.50;;;;;;5083059;28;20044;-73
2021/11/15 03:31:38;;;;;;;70.35;42.10;;;6.10;93.50;;;;;;5083283;28;20032;-73
2021/11/15 03:34:07;;;;;;;71.20;43.08;;;6.20;93.40;;;;;;5074594;28;20056;-76
2021/11/15 03:36:34;;;;;;;71.22;42.38;;;6.20;93.30;;;;;;5078788;28;20476;-73
2021/11/15 03:39:00;;;;;;;71.65;43.03;;;6.30;93.30;;;;;;5080968;28;20058;-73
2021/11/15 03:41:31;;;;;;;77.93;43.67;;;6.30;93.40;;;;;;5081169;28;20434;-75
2021/11/15 03:43:57;;;;;;;76.13;43.58;;;6.40;93.30;;;;;;5082949;28;20445;-72
2021/11/15 03:46:23;;;;;;;75.28;44.55;;;6.40;93.40;;;;;;5080906;28;20065;-73
2021/11/15 03:48:50;;;;;;;80.43;44.53;;;6.50;93.40;;;;;;5078281;28;20116;-74
2021/11/15 03:51:17;;;;;;;78.05;46.30;;;6.40;93.40;;;;;;5075359;28;20024;-75
2021/11/15 03:53:43;;;;;;;74.40;43.60;;;6.50;93.50;;;;;;5073242;28;20040;-72
2021/11/15 03:56:13;;;;;;;76.38;44.70;;;6.60;93.40;;;;;;5074625;28;20044;-73
2021/11/15 03:58:42;;;;;;;74.60;44.45;;;6.60;93.40;;;;;;5082757;28;20491;-72
2021/11/15 04:01:08;;;;;;;78.53;44.92;;;6.70;93.40;;;;;;5080529;28;20301;-73
2021/11/15 04:03:36;;;;;;;75.90;45.65;;;6.70;93.50;;;;;;5081599;28;20032;-73
2021/11/15 04:06:06;;;;;;;80.75;46.67;;;6.70;93.40;;;;;;5079044;27;20498;-74
2021/11/15 04:08:33;;;;;;;77.05;45.35;;;6.80;93.40;;;;;;5072523;28;20094;-72
2021/11/15 04:11:01;;;;;;;78.05;45.90;;;6.80;93.40;;;;;;5082541;28;20051;-72
2021/11/15 04:13:34;;;;;;;79.07;46.50;;;6.90;93.40;;;;;;5072565;27;20403;-77
2021/11/15 04:16:05;;;;;;;86.95;49.28;;;6.90;93.40;;;;;;5081715;28;20024;-72
2021/11/15 04:18:35;;;;;;;85.03;48.20;;;6.90;93.30;;;;;;5081417;28;20467;-73
2021/11/15 04:21:02;;;;;;;82.80;48.42;;;6.90;93.40;;;;;;5085824;28;20031;-72
2021/11/15 04:23:28;;;;;;;85.55;49.13;;;6.90;93.30;;;;;;5087193;28;20039;-73
2021/11/15 04:25:54;;;;;;;85.68;49.90;;;7.00;93.40;;;;;;5078404;28;20051;-73
2021/11/15 04:28:19;;;;;;;89.32;49.03;;;7.00;93.40;;;;;;5080068;27;20042;-73
2021/11/15 04:30:45;;;;;;;79.40;47.10;;;7.00;93.30;;;;;;5088800;28;20024;-73
2021/11/15 04:33:11;;;;;;;92.35;50.88;;;7.10;93.30;;;;;;5080271;28;20040;-73
2021/11/15 04:35:37;;;;;;;83.35;48.15;;;7.10;93.30;;;;;;5083486;28;20442;-73
2021/11/15 04:38:06;;;;;;;82.18;48.28;;;7.10;93.30;;;;;;5078101;28;20045;-74
2021/11/15 04:40:32;;;;;;;85.78;48.25;;;7.10;93.30;;;;;;5082585;28;20032;-74
2021/11/15 04:42:58;;;;;;;82.28;48.10;;;7.10;93.30;;;;;;5070775;28;20098;-74
2021/11/15 04:45:24;;;;;;;86.05;48.70;;;7.10;93.30;;;;;;5080314;27;20051;-73
2021/11/15 04:47:50;;;;;;;85.43;49.17;;;7.20;93.20;;;;;;5083471;28;20155;-73
2021/11/15 04:50:17;;;;;;;85.15;48.30;;;7.20;93.20;;;;;;5084027;28;20543;-74
2021/11/15 04:52:44;;;;;;;80.15;47.20;;;7.20;93.20;;;;;;5063859;28;20370;-73
2021/11/15 04:55:13;;;;;;;79.95;47.80;;;7.30;93.20;;;;;;5077196;28;20032;-74
2021/11/15 04:57:39;;;;;;;85.47;49.33;;;7.30;93.10;;;;;;5079556;28;20036;-74
2021/11/15 05:00:10;;;;;;;80.57;47.70;;;7.30;93.00;;;;;;5069851;28;20037;-72
2021/11/15 05:02:36;;;;;;;85.72;48.55;;;7.40;92.80;;;;;;5084715;28;20032;-74
2021/11/15 05:05:02;;;;;;;84.47;48.75;;;7.40;92.50;;;;;;5081445;28;20036;-74
2021/11/15 05:07:28;;;;;;;79.35;47.97;;;7.40;92.40;;;;;;5073352;28;20480;-73
2021/11/15 05:09:54;;;;;;;78.95;45.50;;;7.50;92.30;;;;;;5069120;28;20062;-72
2021/11/15 05:12:20;;;;;;;75.88;45.60;;;7.50;92.30;;;;;;5088353;27;20032;-72
2021/11/15 05:14:45;;;;;;;71.78;44.78;;;7.60;92.10;;;;;;5070989;27;20042;-72
2021/11/15 05:17:11;;;;;;;79.13;48.55;;;7.60;92.00;;;;;;5074436;28;20086;-73
2021/11/15 05:19:36;;;;;;;81.50;47.28;;;7.60;91.90;;;;;;5077144;28;20036;-73
2021/11/15 05:22:02;;;;;;;72.18;46.83;;;7.60;91.70;;;;;;5085023;28;20024;-74
2021/11/15 05:24:28;;;;;;;69.80;42.78;;;7.70;91.30;;;;;;5075310;28;20521;-74
2021/11/15 05:26:53;;;;;;;70.85;45.55;;;7.70;91.10;;;;;;5074995;28;20030;-74
2021/11/15 05:29:19;;;;;;;73.90;45.33;;;7.70;91.00;;;;;;5085997;28;20057;-75
2021/11/15 05:31:45;;;;;;;76.70;45.63;;;7.80;90.90;;;;;;5067616;28;20055;-75
2021/11/15 05:34:11;;;;;;;76.28;46.80;;;7.80;90.70;;;;;;5074805;27;20130;-78
2021/11/15 05:36:37;;;;;;;74.47;45.42;;;7.80;90.60;;;;;;5062642;28;20538;-73
2021/11/15 05:39:04;;;;;;;74.07;44.67;;;7.90;90.60;;;;;;5072648;27;20032;-75
2021/11/15 05:41:30;;;;;;;73.50;44.72;;;7.80;90.40;;;;;;5071386;28;20036;-76
2021/11/15 05:43:56;;;;;;;76.80;47.92;;;7.80;90.40;;;;;;5069948;28;20360;-74
2021/11/15 05:46:21;;;;;;;75.95;46.85;;;7.90;90.40;;;;;;5077862;28;20119;-74
2021/11/15 05:48:47;;;;;;;83.35;50.17;;;7.90;90.20;;;;;;5080421;28;20057;-73
2021/11/15 05:51:13;;;;;;;77.75;48.50;;;7.90;90.10;;;;;;5075472;28;20044;-72
2021/11/15 05:53:41;;;;;;;85.30;51.10;;;7.90;90.00;;;;;;5065561;28;20040;-73
2021/11/15 05:56:07;;;;;;;82.82;50.58;;;8.00;89.60;;;;;;5059903;28;20414;-75
2021/11/15 05:58:34;;;;;;;81.93;50.28;;;8.00;89.50;;;;;;5057875;28;20029;-75
2021/11/15 06:00:59;;;;;;;78.13;48.42;;;8.00;89.50;;;;;;5063598;28;20028;-75
2021/11/15 06:03:27;;;;;;;77.80;48.33;;;8.00;89.40;;;;;;5057632;28;20490;-74
2021/11/15 06:05:53;;;;;;;77.18;48.15;;;8.00;89.30;;;;;;5061831;28;20043;-74
2021/11/15 06:08:18;;;;;;;78.38;48.88;;;8.10;89.40;;;;;;5060436;28;21232;-74
2021/11/15 06:10:44;;;;;;;81.18;51.08;;;8.10;89.40;;;;;;5062644;28;20372;-77
2021/11/15 06:13:11;;;;;;;81.72;49.78;;;8.00;89.40;;;;;;5064778;28;20055;-74
2021/11/15 06:15:36;;;;;;;82.63;50.05;;;7.90;89.50;;;;;;5062213;28;20036;-74
2021/11/15 06:18:02;;;;;;;82.80;51.08;;;8.00;89.60;;;;;;5058777;28;20115;-76
2021/11/15 06:20:28;;;;;;;81.63;49.92;;;8.00;89.50;;;;;;5062044;28;20042;-78
2021/11/15 06:22:53;;;;;;;83.53;51.63;;;8.00;89.60;;;;;;5054597;28;20033;-76
2021/11/15 06:25:19;;;;;;;80.63;49.78;;;8.00;89.70;;;;;;5055052;28;20070;-73
2021/11/15 06:27:45;;;;;;;89.13;52.15;;;8.00;89.70;;;;;;5060432;28;20036;-73
2021/11/15 06:30:14;;;;;;;92.60;54.95;;;8.00;89.70;;;;;;5056241;28;20044;-77
2021/11/15 06:32:40;;;;;;;90.03;54.15;;;8.00;89.70;;;;;;5062272;28;20174;-73
2021/11/15 06:35:07;;;;;;;82.68;50.85;;;8.00;89.70;;;;;;5068483;28;20032;-72
2021/11/15 06:37:34;;;;;;;89.90;54.85;;;8.00;89.70;;;;;;5073255;28;20035;-73
2021/11/15 06:40:00;;;;;;;87.88;53.42;;;8.00;89.60;;;;;;5061199;28;20036;-73
2021/11/15 06:42:25;;;;;;;91.32;53.78;;;8.00;89.70;;;;;;5060718;28;20247;-71
2021/11/15 06:44:51;;;;;;;86.68;52.47;;;8.00;89.70;;;;;;5056600;28;20075;-71
2021/11/15 06:47:16;;;;;;;87.15;54.15;;;8.00;89.80;;;;;;5060107;28;20039;-71
2021/11/15 06:49:42;;;;;;;89.75;53.40;;;8.10;89.80;;;;;;5080134;28;20124;-70
2021/11/15 06:52:08;;;;;;;91.07;54.33;;;8.00;89.80;;;;;;5077424;28;20169;-71
2021/11/15 06:54:34;;;;;;;88.95;53.53;;;8.10;89.80;;;;;;5062912;28;20044;-71
2021/11/15 06:56:59;;;;;;;86.40;52.28;;;8.00;89.80;;;;;;5071122;27;20036;-71
2021/11/15 06:59:25;;;;;;;85.63;52.75;;;8.10;89.70;;;;;;5081705;27;20400;-72
2021/11/15 07:01:51;;;;;;;90.55;53.97;;;8.10;89.60;;;;;;5083069;28;20052;-73
2021/11/15 07:04:17;;;;;;;85.53;53.05;;;8.10;89.50;;;;;;5066545;28;20049;-71
2021/11/15 07:06:43;;;;;;;88.32;55.53;;;8.10;89.40;;;;;;5054832;28;20090;-71
2021/11/15 07:09:09;;;;;;;84.68;51.90;;;8.10;89.30;;;;;;5064178;28;20545;-70
2021/11/15 07:11:36;;;;;;;86.25;52.28;;;8.10;89.40;;;;;;5055110;28;20472;-71
2021/11/15 07:14:03;;;;;;;86.85;54.40;;;8.10;89.20;;;;;;5054484;28;20085;-71
2021/11/15 07:16:28;;;;;;;88.40;52.90;;;8.20;89.20;;;;;;5055546;28;20036;-71
2021/11/15 07:18:55;;;;;;;86.30;53.53;;;8.20;89.10;;;;;;5062019;28;20039;-72
2021/11/15 07:21:21;;;;;;;89.63;56.40;;;8.10;89.20;;;;;;5058326;28;20040;-72
2021/11/15 07:23:48;;;;;;;83.88;52.92;;;8.20;89.20;;;;;;5060021;28;20043;-71
2021/11/15 07:26:15;;;;;;;86.28;53.65;;;8.20;89.10;;;;;;5082331;28;20093;-72
2021/11/15 07:28:42;;;;;;;84.57;51.80;;;8.10;89.20;;;;;;5085070;28;20040;-74
2021/11/15 07:31:08;;;;;;;83.15;52.25;;;8.20;89.10;;;;;;5084549;28;20564;-71
2021/11/15 07:33:33;;;;;;;84.45;52.38;;;8.10;89.10;;;;;;5083181;28;20097;-72
2021/11/15 07:35:59;;;;;;;77.18;49.70;;;8.20;89.10;;;;;;5079103;28;20024;-71
2021/11/15 07:38:25;;;;;;;83.25;49.85;;;8.20;89.00;;;;;;5079870;28;20040;-73
2021/11/15 07:40:51;;;;;;;75.45;47.55;;;8.20;88.70;;;;;;5076753;28;20041;-72
2021/11/15 07:43:18;;;;;;;75.15;47.47;;;8.20;88.60;;;;;;5080685;28;20036;-70
2021/11/15 07:45:44;;;;;;;77.45;47.95;;;8.20;88.10;;;;;;5061360;28;20051;-71
2021/11/15 07:48:10;;;;;;;75.97;47.10;;;8.20;88.10;;;;;;5073315;28;20557;-71
2021/11/15 07:50:36;;;;;;;74.63;48.28;;;8.20;88.00;;;;;;5081855;28;20020;-72
2021/11/15 07:53:03;;;;;;;74.28;46.33;;;8.20;87.40;;;;;;5078425;28;20671;-75
2021/11/15 07:55:29;;;;;;;72.43;46.60;;;8.30;87.20;;;;;;5064978;28;20094;-71
2021/11/15 07:57:56;;;;;;;66.18;44.33;;;8.30;87.20;;;;;;5038299;28;20032;-71
2021/11/15 08:00:24;;;;;;;75.55;44.50;;;8.30;87.30;;;;;;5062854;28;20160;-70
2021/11/15 08:02:50;;;;;;;70.20;47.08;;;8.20;87.40;;;;;;5067319;27;20480;-70
2021/11/15 08:05:19;;;;;;;76.95;49.15;;;8.20;87.60;;;;;;5083716;28;20042;-73
2021/11/15 08:07:45;;;;;;;65.03;44.53;;;8.30;87.70;;;;;;5060960;28;20037;-73
2021/11/15 08:10:13;;;;;;;61.08;42.10;;;8.30;87.50;;;;;;5059984;28;20032;-71
2021/11/15 08:12:41;;;;;;;65.85;44.85;;;8.30;87.30;;;;;;5076738;28;20033;-72
2021/11/15 08:15:10;;;;;;;74.68;48.88;;;8.30;87.30;;;;;;5065738;28;20060;-72
2021/11/15 08:17:37;;;;;;;76.72;48.88;;;8.30;87.20;;;;;;5064295;28;20032;-72
2021/11/15 08:20:07;;;;;;;70.45;45.53;;;8.30;87.20;;;;;;5061086;28;20044;-72
2021/11/15 08:22:33;;;;;;;64.47;43.88;;;8.30;87.30;;;;;;5074026;28;20040;-73
2021/11/15 08:24:59;;;;;;;69.85;46.35;;;8.30;87.20;;;;;;5060153;28;20097;-72
2021/11/15 08:27:25;;;;;;;67.28;46.70;;;8.30;87.20;;;;;;5062724;28;20483;-72
2021/11/15 08:29:51;;;;;;;69.60;46.15;;;8.20;87.50;;;;;;5060901;28;20365;-73
2021/11/15 08:32:24;;;;;;;63.90;44.53;;;8.20;87.50;;;;;;5062272;28;20494;-73
2021/11/15 08:34:53;;;;;;;63.25;43.20;;;8.30;87.70;;;;;;5062792;28;20049;-73
2021/11/15 08:37:19;;;;;;;69.68;45.85;;;8.30;87.70;;;;;;5068123;28;20074;-72
2021/11/15 08:39:45;;;;;;;65.03;45.67;;;8.20;87.60;;;;;;5063597;28;20068;-71
2021/11/15 08:42:10;;;;;;;65.53;43.80;;;8.20;87.80;;;;;;5074678;27;20064;-71
2021/11/15 08:44:52;;;;;;;65.65;45.08;;;8.20;87.70;;;;;;5073509;28;20522;-71
2021/11/15 08:47:17;;;;;;;62.83;42.42;;;8.20;87.80;;;;;;5072140;28;20120;-72
2021/11/15 08:49:43;;;;;;;69.95;44.88;;;8.30;87.90;;;;;;5071796;28;20163;-69
2021/11/15 08:52:09;;;;;;;74.18;46.63;;;8.30;87.90;;;;;;5069089;27;20462;-71
2021/11/15 08:54:35;;;;;;;76.85;48.65;;;8.30;87.90;;;;;;5064224;28;20630;-70
2021/11/15 08:57:04;;;;;;;76.85;47.47;;;8.20;88.00;;;;;;5070990;28;20663;-73
2021/11/15 08:59:30;;;;;;;82.43;49.47;;;8.30;88.00;;;;;;5078936;28;20047;-75
2021/11/15 09:01:56;;;;;;;89.93;53.78;;;8.30;88.10;;;;;;5082225;27;20033;-71
2021/11/15 09:04:22;;;;;;;86.68;53.35;;;8.30;87.60;;;;;;5081822;28;20090;-71
2021/11/15 09:06:48;;;;;;;85.45;54.28;;;8.30;87.60;;;;;;5085738;27;20041;-71
2021/11/15 09:09:16;;;;;;;91.75;56.10;;;8.40;87.80;;;;;;5081727;27;20047;-71
2021/11/15 09:11:49;;;;;;;86.28;53.60;;;8.40;87.40;;;;;;5080492;28;20048;-71
2021/11/15 09:14:17;;;;;;;93.72;56.20;;;8.40;87.70;;;;;;5082103;28;20127;-71
2021/11/15 09:16:43;;;;;;;100.38;58.80;;;8.40;87.60;;;;;;5082931;28;20032;-71
2021/11/15 09:19:10;;;;;;;107.32;63.33;;;8.40;87.60;;;;;;5082632;28;20038;-73
2021/11/15 09:21:36;;;;;;;125.63;69.95;;;8.40;87.60;;;;;;5082462;28;20036;-71
2021/11/15 09:24:03;;;;;;;120.13;71.97;;;8.30;87.60;;;;;;5083318;28;20024;-71
2021/11/15 09:26:29;;;;;;;119.00;70.22;;;8.40;87.40;;;;;;5088059;28;20056;-70
2021/11/15 09:28:55;;;;;;;124.30;72.60;;;8.30;87.10;;;;;;5084964;27;20149;-74
2021/11/15 09:31:22;;;;;;;103.85;62.60;;;8.40;87.00;;;;;;5063588;28;20465;-71
2021/11/15 09:33:49;;;;;;;85.28;51.58;;;8.40;86.90;;;;;;5063069;28;20043;-75
2021/11/15 09:36:16;;;;;;;79.93;48.85;;;8.40;86.50;;;;;;5059947;28;20047;-72
2021/11/15 09:38:44;;;;;;;81.07;50.78;;;8.40;86.40;;;;;;5064664;28;20039;-73
2021/11/15 09:41:11;;;;;;;84.30;49.35;;;8.40;86.40;;;;;;5060083;28;20067;-71
2021/11/15 09:43:37;;;;;;;82.65;50.33;;;8.30;86.20;;;;;;5065554;28;20032;-71
2021/11/15 09:46:10;;;;;;;77.93;48.00;;;8.30;86.60;;;;;;5055724;28;20063;-71
2021/11/15 09:48:42;;;;;;;85.63;52.30;;;8.30;86.60;;;;;;5065284;28;20044;-70
2021/11/15 09:51:09;;;;;;;98.38;58.20;;;8.30;86.30;;;;;;5068559;28;20037;-72
2021/11/15 09:53:35;;;;;;;111.05;64.07;;;8.30;86.60;;;;;;5070265;28;20036;-72
2021/11/15 09:56:03;;;;;;;111.45;66.05;;;8.20;86.60;;;;;;5076513;28;20044;-73
2021/11/15 09:58:32;;;;;;;113.28;67.05;;;8.30;86.80;;;;;;5071843;27;20073;-73
2021/11/15 10:01:00;;;;;;;111.95;64.43;;;8.20;86.90;;;;;;5076493;28;20024;-71
2021/11/15 10:03:27;;;;;;;105.68;61.63;;;8.30;87.10;;;;;;5062314;28;20045;-73
2021/11/15 10:05:53;;;;;;;111.28;61.88;;;8.30;87.10;;;;;;5060878;28;20087;-71
2021/11/15 10:08:19;;;;;;;99.82;57.75;;;8.20;86.80;;;;;;5083108;28;20061;-71
2021/11/15 10:10:56;;;;;;;100.65;55.58;;;8.30;87.10;;;;;;5075651;28;20040;-71
2021/11/15 10:13:30;;;;;;;83.57;48.70;;;8.30;87.00;;;;;;5062012;28;20878;-72
2021/11/15 10:16:13;;;;;;;87.65;49.72;;;8.30;86.90;;;;;;5057464;28;20024;-72
2021/11/15 10:18:58;;;;;;;84.28;48.90;;;8.30;87.10;;;;;;5063314;28;20086;-70
2021/11/15 10:21:24;;;;;;;;;;;8.30;87.20;;;;;;5062369;28;20460;-70
2021/11/15 10:24:10;;;;;;;83.95;52.53;;;8.40;87.10;;;;;;5063896;28;19919;-71
2021/11/15 10:26:52;;;;;;;94.47;53.92;;;8.30;87.20;;;;;;5064619;28;20462;-70
2021/11/15 10:29:24;;;;;;;84.22;50.83;;;8.30;87.10;;;;;;5075885;27;20048;-73
2021/11/15 10:31:52;;;;;;;75.20;45.25;;;8.30;87.30;;;;;;5069292;28;20425;-70
2021/11/15 10:34:21;;;;;;;70.18;43.13;;;8.30;87.30;;;;;;5080052;28;20040;-71
2021/11/15 10:36:50;;;;;;;72.13;43.25;;;8.30;87.30;;;;;;5075142;28;20068;-70
2021/11/15 10:39:20;;;;;;;75.45;45.05;;;8.20;87.30;;;;;;5071746;27;20036;-70
2021/11/15 10:42:07;;;;;;;73.65;45.22;;;8.20;87.20;;;;;;5063108;28;20048;-70
2021/11/15 10:44:34;;;;;;;92.57;52.25;;;8.30;87.40;;;;;;5081430;28;20077;-72
2021/11/15 10:47:00;;;;;;;103.75;60.78;;;8.20;87.10;;;;;;5076886;28;20044;-70
2021/11/15 10:49:27;;;;;;;97.60;55.50;;;8.20;86.90;;;;;;5082247;28;20036;-72
2021/11/15 10:52:01;;;;;;;102.93;55.50;;;8.20;87.00;;;;;;5081952;28;20472;-70
2021/11/15 10:57:28;;;;;;;122.35;64.68;;;8.30;86.70;;;;;;5070191;28;20040;-71
2021/11/15 11:00:06;;;;;;;103.47;55.58;;;8.20;86.80;;;;;;5063463;28;20032;-70
2021/11/15 11:02:35;;;;;;;112.30;59.42;;;8.30;86.60;;;;;;5060486;28;20526;-72
2021/11/15 11:05:08;;;;;;;100.20;53.63;;;8.20;86.80;;;;;;5063055;28;20392;-73
2021/11/15 11:07:45;;;;;;;105.93;57.75;;;8.30;86.80;;;;;;5067385;28;20032;-73
2021/11/15 11:10:14;;;;;;;103.35;55.88;;;8.20;86.90;;;;;;5080269;28;20115;-71
2021/11/15 11:12:43;;;;;;;87.53;50.35;;;8.30;86.70;;;;;;5081248;28;20040;-71
2021/11/15 11:15:39;;;;;;;83.22;48.53;;;8.20;86.80;;;;;;5079170;28;21259;-71
2021/11/15 11:18:18;;;;;;;90.88;52.15;;;8.10;87.20;;;;;;5077526;28;20103;-73
2021/11/15 11:26:20;;;;;;;90.18;51.45;;;8.30;87.10;;;;;;5084100;28;20063;-70
2021/11/15 11:28:54;;;;;;;82.18;49.88;;;8.20;87.30;;;;;;5087507;28;20052;-72
2021/11/15 11:31:21;;;;;;;93.07;52.38;;;8.30;87.20;;;;;;5079181;28;20082;-71
2021/11/15 11:33:47;;;;;;;96.05;55.35;;;8.20;87.10;;;;;;5090339;27;20090;-72
2021/11/15 11:36:13;;;;;;;98.65;57.80;;;8.30;87.20;;;;;;5083367;28;20387;-71
2021/11/15 11:38:41;;;;;;;89.85;51.20;;;8.30;87.20;;;;;;5084462;27;20504;-71
2021/11/15 11:41:07;;;;;;;89.32;51.42;;;8.30;87.30;;;;;;5084683;27;20078;-72
2021/11/15 11:43:33;;;;;;;97.20;54.47;;;8.30;87.40;;;;;;5087334;28;20042;-70
2021/11/15 11:45:59;;;;;;;97.75;55.45;;;8.40;87.30;;;;;;5085988;28;20032;-72
2021/11/15 11:48:26;;;;;;;90.00;53.30;;;8.30;87.20;;;;;;5080148;28;20032;-71
2021/11/15 11:50:54;;;;;;;84.82;48.85;;;8.20;87.50;;;;;;5078759;28;20058;-71
2021/11/15 11:53:29;;;;;;;74.53;46.33;;;8.30;87.50;;;;;;5084253;28;20574;-70
2021/11/15 11:55:56;;;;;;;77.75;46.08;;;8.30;87.30;;;;;;5081675;28;20036;-73
2021/11/15 11:58:31;;;;;;;79.00;48.78;;;8.30;87.20;;;;;;5082460;28;20070;-74
2021/11/15 12:01:17;;;;;;;;;;;8.40;87.40;;;;;;5079514;27;20039;-75
2021/11/15 12:04:12;;;;;;;97.50;54.40;;;8.30;87.00;;;;;;5079708;28;19954;-72
2021/11/15 12:06:39;;;;;;;85.60;49.58;;;8.30;87.30;;;;;;5069829;28;20321;-75
2021/11/15 12:09:04;;;;;;;85.45;49.30;;;8.30;87.20;;;;;;5074115;28;20045;-72
2021/11/15 12:11:34;;;;;;;87.78;52.95;;;8.40;87.20;;;;;;5084230;28;20039;-71
2021/11/15 12:14:00;;;;;;;104.65;60.28;;;8.40;87.20;;;;;;5073747;28;20068;-72
2021/11/15 12:16:57;;;;;;;100.82;59.63;;;8.40;87.40;;;;;;5075218;28;20111;-72
2021/11/15 12:19:47;;;;;;;107.88;59.10;;;8.30;87.30;;;;;;5046975;28;20464;-72
2021/11/15 12:22:16;;;;;;;107.53;57.67;;;8.30;87.60;;;;;;5056971;28;20040;-73
2021/11/15 12:25:03;;;;;;;97.60;56.75;;;8.40;87.80;;;;;;5063281;28;20029;-71
2021/11/15 12:27:44;;;;;;;98.97;55.08;;;8.30;87.70;;;;;;5060215;28;20045;-75
2021/11/15 12:30:20;;;;;;;108.38;62.35;;;8.40;87.80;;;;;;5056538;28;20067;-72
2021/11/15 12:33:09;;;;;;;95.32;54.05;;;8.30;87.60;;;;;;5064599;28;20391;-72
2021/11/15 12:36:00;;;;;;;83.43;46.25;;;8.20;88.00;;;;;;5058371;28;20060;-70
2021/11/15 12:38:50;;;;;;;87.32;50.35;;;8.20;88.30;;;;;;5063088;28;20159;-70
2021/11/15 12:41:22;;;;;;;80.95;46.05;;;8.20;88.30;;;;;;5062758;28;20032;-72
2021/11/15 12:44:06;;;;;;;79.03;46.58;;;8.30;88.20;;;;;;5066956;28;20060;-70
2021/11/15 12:46:45;;;;;;;76.27;46.30;;;8.30;88.20;;;;;;5067998;28;20063;-72
2021/11/15 12:49:29;;;;;;;86.50;50.50;;;8.30;88.30;;;;;;5082853;28;20032;-71